createdAt,value
2019-05-14T00:01:08.475Z,103733.06
2019-05-14T00:03:41.359Z,103740.09
2019-05-14T00:06:13.765Z,103737.52
2019-05-14T00:08:46.016Z,103740.89
2019-05-14T00:11:18.289Z,103731.41
2019-05-14T00:13:52.041Z,103727.50
2019-05-14T00:16:24.570Z,103727.89
2019-05-14T00:18:56.903Z,103720.86
2019-05-14T00:21:31.500Z,103721.14
2019-05-14T00:24:03.150Z,103720.36
2019-05-14T00:26:35.392Z,103715.30
2019-05-14T00:29:11.162Z,103719.06
2019-05-14T00:31:42.842Z,103718.67
2019-05-14T00:34:16.271Z,103722.96
2019-05-14T00:36:48.312Z,103724.53
2019-05-14T00:39:21.351Z,103718.03
2019-05-14T00:41:53.826Z,103717.01
2019-05-14T00:44:26.066Z,103714.13
2019-05-14T00:46:58.279Z,103708.19
2019-05-14T00:49:31.698Z,103717.28
2019-05-14T00:52:04.012Z,103711.94
2019-05-14T00:54:36.208Z,103702.20
2019-05-14T00:57:08.420Z,103700.64
2019-05-14T00:59:41.769Z,103698.33
2019-05-14T01:02:14.266Z,103706.62
2019-05-14T01:04:46.513Z,103709.73
2019-05-14T01:07:21.003Z,103714.44
2019-05-14T01:09:53.696Z,103714.19
2019-05-14T01:12:26.972Z,103714.81
2019-05-14T01:15:09.641Z,103714.69
2019-05-14T01:17:33.142Z,103714.44
2019-05-14T01:20:05.393Z,103711.44
2019-05-14T01:22:37.676Z,103709.37
2019-05-14T01:25:11.916Z,103703.64
2019-05-14T01:27:45.973Z,103701.84
2019-05-14T01:30:18.200Z,103709.75
2019-05-14T01:32:51.126Z,103717.93
2019-05-14T01:35:25.610Z,103710.39
2019-05-14T01:37:57.899Z,103714.03
2019-05-14T01:40:31.510Z,103705.98
2019-05-14T01:43:04.032Z,103711.31
2019-05-14T01:45:36.244Z,103718.84
2019-05-14T01:48:08.440Z,103715.45
2019-05-14T01:50:41.409Z,103709.09
2019-05-14T01:53:14.158Z,103710.66
2019-05-14T01:55:46.403Z,103709.88
2019-05-14T01:58:18.693Z,103711.02
2019-05-14T02:00:52.394Z,103710.38
2019-05-14T02:03:24.826Z,103715.81
2019-05-14T02:05:58.180Z,103705.55
2019-05-14T02:08:32.313Z,103707.76
2019-05-14T02:11:04.363Z,103709.05
2019-05-14T02:13:36.758Z,103710.48
2019-05-14T02:16:12.768Z,103710.75
2019-05-14T02:18:43.114Z,103708.80
2019-05-14T02:21:15.314Z,103701.80
2019-05-14T02:23:47.534Z,103712.33
2019-05-14T02:26:21.942Z,103708.82
2019-05-14T02:28:53.695Z,103713.22
2019-05-14T02:31:29.024Z,103708.27
2019-05-14T02:33:59.939Z,103695.70
2019-05-14T02:36:32.189Z,103692.05
2019-05-14T02:39:04.421Z,103687.39
2019-05-14T02:41:39.121Z,103681.66
2019-05-14T02:44:12.276Z,103685.56
2019-05-14T02:46:46.722Z,103679.87
2019-05-14T02:49:19.602Z,103671.94
2019-05-14T02:51:51.960Z,103675.06
2019-05-14T02:54:24.212Z,103668.95
2019-05-14T02:56:59.627Z,103672.70
2019-05-14T02:59:30.871Z,103676.09
2019-05-14T03:02:03.211Z,103671.14
2019-05-14T03:04:35.483Z,103663.50
2019-05-14T03:07:11.012Z,103668.19
2019-05-14T03:09:43.900Z,103665.70
2019-05-14T03:12:19.213Z,103668.69
2019-05-14T03:14:50.323Z,103671.55
2019-05-14T03:17:24.806Z,103665.19
2019-05-14T03:19:59.956Z,103663.37
2019-05-14T03:22:43.202Z,103667.09
2019-05-14T03:25:04.907Z,103662.70
2019-05-14T03:27:40.295Z,103662.94
2019-05-14T03:30:13.206Z,103664.38
2019-05-14T03:32:45.039Z,103665.03
2019-05-14T03:35:22.577Z,103665.66
2019-05-14T03:37:51.216Z,103663.56
2019-05-14T03:40:23.431Z,103662.39
2019-05-14T03:42:55.811Z,103661.89
2019-05-14T03:45:30.050Z,103655.41
2019-05-14T03:48:02.162Z,103661.62
2019-05-14T03:50:34.397Z,103664.48
2019-05-14T03:53:09.826Z,103666.93
2019-05-14T03:55:41.006Z,103659.41
2019-05-14T03:58:13.301Z,103657.20
2019-05-14T04:00:45.503Z,103654.23
2019-05-14T04:03:19.819Z,103649.53
2019-05-14T04:05:51.677Z,103656.02
2019-05-14T04:08:23.933Z,103659.14
2019-05-14T04:10:59.001Z,103646.44
2019-05-14T04:13:30.519Z,103642.42
2019-05-14T04:16:02.756Z,103640.63
2019-05-14T04:18:35.013Z,103630.76
2019-05-14T04:21:10.131Z,103625.72
2019-05-14T04:23:41.167Z,103623.90
2019-05-14T04:26:13.357Z,103623.53
2019-05-14T04:28:45.576Z,103626.77
2019-05-14T04:31:19.136Z,103627.17
2019-05-14T04:33:51.664Z,103630.42
2019-05-14T04:36:23.895Z,103633.66
2019-05-14T04:38:56.128Z,103629.11
2019-05-14T04:41:29.847Z,103633.12
2019-05-14T04:44:02.420Z,103629.22
2019-05-14T04:46:34.652Z,103624.55
2019-05-14T04:49:09.660Z,103627.68
2019-05-14T04:51:41.290Z,103625.72
2019-05-14T04:54:15.474Z,103630.55
2019-05-14T04:56:50.862Z,103627.28
2019-05-14T04:59:23.027Z,103629.61
2019-05-14T05:01:55.254Z,103627.90
2019-05-14T05:04:29.820Z,103621.91
2019-05-14T05:07:01.473Z,103624.47
2019-05-14T05:09:33.933Z,103617.70
2019-05-14T05:12:08.862Z,103617.94
2019-05-14T05:14:40.171Z,103617.50
2019-05-14T05:17:12.519Z,103615.81
2019-05-14T05:19:45.936Z,103615.28
2019-05-14T05:22:19.599Z,103619.14
2019-05-14T05:24:52.085Z,103615.48
2019-05-14T05:27:28.640Z,103619.91
2019-05-14T05:30:00.494Z,103615.85
2019-05-14T05:32:32.684Z,103612.19
2019-05-14T05:35:04.918Z,103614.80
2019-05-14T05:37:38.442Z,103621.05
2019-05-14T05:40:10.956Z,103622.96
2019-05-14T05:42:43.386Z,103615.41
2019-05-14T05:45:15.719Z,103617.25
2019-05-14T05:47:57.764Z,103607.65
2019-05-14T05:50:22.575Z,103605.00
2019-05-14T05:52:54.834Z,103603.40
2019-05-14T05:55:28.768Z,103603.48
2019-05-14T05:58:01.284Z,103603.31
2019-05-14T06:00:33.717Z,103611.96
2019-05-14T06:03:10.236Z,103608.05
2019-05-14T06:05:40.034Z,103599.64
2019-05-14T06:08:12.295Z,103602.16
2019-05-14T06:10:44.641Z,103618.53
2019-05-14T06:13:18.298Z,103615.59
2019-05-14T06:15:52.244Z,103612.77
2019-05-14T06:18:25.145Z,103613.97
2019-05-14T06:20:58.510Z,103612.61
2019-05-14T06:23:32.076Z,103617.85
2019-05-14T06:26:04.320Z,103619.55
2019-05-14T06:28:40.918Z,103620.52
2019-05-14T06:31:11.053Z,103624.69
2019-05-14T06:33:43.298Z,103615.58
2019-05-14T06:36:15.550Z,103614.89
2019-05-14T06:38:49.440Z,103621.74
2019-05-14T06:41:24.110Z,103620.73
2019-05-14T06:43:58.904Z,103614.11
2019-05-14T06:46:30.308Z,103613.86
2019-05-14T06:49:02.633Z,103620.55
2019-05-14T06:51:39.302Z,103619.86
2019-05-14T06:54:10.834Z,103616.77
2019-05-14T06:56:43.360Z,103613.51
2019-05-14T06:59:18.015Z,103611.44
2019-05-14T07:01:49.666Z,103611.78
2019-05-14T07:04:21.900Z,103610.55
2019-05-14T07:06:54.290Z,103608.64
2019-05-14T07:09:29.066Z,103609.89
2019-05-14T07:12:01.558Z,103610.72
2019-05-14T07:14:34.132Z,103619.49
2019-05-14T07:17:08.853Z,103608.77
2019-05-14T07:19:40.307Z,103613.86
2019-05-14T07:22:12.541Z,103611.81
2019-05-14T07:24:44.832Z,103599.06
2019-05-14T07:27:19.280Z,103602.34
2019-05-14T07:29:51.175Z,103596.09
2019-05-14T07:32:23.393Z,103600.10
2019-05-14T07:34:55.683Z,103599.02
2019-05-14T07:37:28.562Z,103595.69
2019-05-14T07:40:01.118Z,103589.92
2019-05-14T07:42:33.390Z,103590.71
2019-05-14T07:45:05.425Z,103597.23
2019-05-14T07:47:39.062Z,103600.75
2019-05-14T07:50:11.334Z,103602.72
2019-05-14T07:52:45.732Z,103598.09
2019-05-14T07:55:18.531Z,103594.18
2019-05-14T07:57:50.930Z,103590.02
2019-05-14T08:00:23.189Z,103592.48
2019-05-14T08:02:55.401Z,103589.59
2019-05-14T08:05:28.756Z,103588.28
2019-05-14T08:08:01.162Z,103589.36
2019-05-14T08:10:33.418Z,103592.97
2019-05-14T08:13:05.724Z,103590.73
2019-05-14T08:15:38.683Z,103583.67
2019-05-14T08:18:11.080Z,103578.57
2019-05-14T08:20:43.399Z,103577.88
2019-05-14T08:23:15.434Z,103565.59
2019-05-14T08:25:48.245Z,103569.32
2019-05-14T08:28:21.304Z,103570.05
2019-05-14T08:30:53.701Z,103566.17
2019-05-14T08:33:25.937Z,103558.48
2019-05-14T08:35:58.372Z,103542.20
2019-05-14T08:38:31.863Z,103535.70
2019-05-14T08:41:04.224Z,103534.28
2019-05-14T08:43:39.335Z,103533.66
2019-05-14T08:46:10.554Z,103521.86
2019-05-14T08:48:42.893Z,103517.58
2019-05-14T08:51:15.142Z,103512.56
2019-05-14T08:53:50.333Z,103521.95
2019-05-14T08:56:21.489Z,103526.52
2019-05-14T08:58:53.736Z,103522.76
2019-05-14T09:01:25.956Z,103512.27
2019-05-14T09:03:59.565Z,103521.78
2019-05-14T09:06:32.204Z,103520.27
2019-05-14T09:09:04.524Z,103512.50
2019-05-14T09:11:44.619Z,103514.03
2019-05-14T09:14:11.538Z,103516.66
2019-05-14T09:16:47.776Z,103515.70
2019-05-14T09:19:19.301Z,103510.39
2019-05-14T09:21:52.023Z,103516.72
2019-05-14T09:24:24.256Z,103517.87
2019-05-14T09:26:59.000Z,103525.39
2019-05-14T09:29:30.844Z,103504.39
2019-05-14T09:32:03.053Z,103510.42
2019-05-14T09:34:35.197Z,103518.72
2019-05-14T09:37:08.623Z,103509.84
2019-05-14T09:39:41.210Z,103510.27
2019-05-14T09:42:13.674Z,103511.29
2019-05-14T09:44:45.911Z,103510.48
2019-05-14T09:47:18.953Z,103507.95
2019-05-14T09:49:51.488Z,103509.64
2019-05-14T09:52:24.689Z,103497.17
2019-05-14T09:54:58.592Z,103494.28
2019-05-14T09:57:30.886Z,103499.47
2019-05-14T10:00:03.178Z,103483.97
2019-05-14T10:02:39.359Z,103482.05
2019-05-14T10:05:10.630Z,103470.91
2019-05-14T10:07:42.928Z,103459.55
2019-05-14T10:10:15.267Z,103460.36
2019-05-14T10:12:54.105Z,103456.77
2019-05-14T10:15:21.711Z,103448.48
2019-05-14T10:17:53.938Z,103444.03
2019-05-14T10:20:40.445Z,103431.95
2019-05-14T10:23:00.196Z,103436.50
2019-05-14T10:25:32.503Z,103433.06
2019-05-14T10:28:04.711Z,103427.14
2019-05-14T10:30:37.149Z,103421.14
2019-05-14T10:33:14.783Z,103429.62
2019-05-14T10:35:43.371Z,103432.57
2019-05-14T10:38:15.683Z,103426.98
2019-05-14T10:40:47.852Z,103420.08
2019-05-14T10:43:20.334Z,103421.12
2019-05-14T10:45:52.696Z,103426.52
2019-05-14T10:48:26.265Z,103416.40
2019-05-14T10:51:03.268Z,103410.21
2019-05-14T10:53:32.659Z,103418.83
2019-05-14T10:56:05.109Z,103420.36
2019-05-14T10:58:37.328Z,103409.77
2019-05-14T11:01:11.415Z,103400.13
2019-05-14T11:03:43.772Z,103407.39
2019-05-14T11:06:18.535Z,103397.69
2019-05-14T11:08:50.423Z,103399.36
2019-05-14T11:11:22.657Z,103395.47
2019-05-14T11:13:54.939Z,103388.69
2019-05-14T11:16:28.365Z,103380.78
2019-05-14T11:19:02.037Z,103370.98
2019-05-14T11:21:34.300Z,103378.16
2019-05-14T11:24:09.467Z,103380.25
2019-05-14T11:26:41.600Z,103365.78
2019-05-14T11:29:13.806Z,103360.71
2019-05-14T11:31:48.374Z,103366.59
2019-05-14T11:34:20.172Z,103360.17
2019-05-14T11:36:52.702Z,103356.45
2019-05-14T11:39:24.942Z,103357.27
2019-05-14T11:41:58.999Z,103355.25
2019-05-14T11:44:31.151Z,103350.95
2019-05-14T11:47:03.375Z,103343.48
2019-05-14T11:49:35.422Z,103347.45
2019-05-14T11:52:11.389Z,103347.45
2019-05-14T11:54:41.396Z,103357.56
2019-05-14T11:57:13.664Z,103358.27
2019-05-14T11:59:46.967Z,103347.30
2019-05-14T12:02:19.818Z,103349.98
2019-05-14T12:04:52.714Z,103355.08
2019-05-14T12:07:27.922Z,103349.99
2019-05-14T12:10:00.445Z,103337.02
2019-05-14T12:12:33.515Z,103332.38
2019-05-14T12:15:08.707Z,103334.30
2019-05-14T12:17:40.944Z,103328.33
2019-05-14T12:20:13.971Z,103328.56
2019-05-14T12:22:48.724Z,103324.63
2019-05-14T12:25:21.379Z,103316.91
2019-05-14T12:27:54.528Z,103309.74
2019-05-14T12:30:28.690Z,103306.23
2019-05-14T12:33:01.936Z,103304.19
2019-05-14T12:35:34.789Z,103297.28
2019-05-14T12:38:09.884Z,103290.59
2019-05-14T12:40:42.221Z,103290.00
2019-05-14T12:43:15.112Z,103293.96
2019-05-14T12:45:48.025Z,103301.67
2019-05-14T12:48:20.914Z,103304.51
2019-05-14T12:50:54.032Z,103296.03
2019-05-14T12:53:28.775Z,103293.38
2019-05-14T12:56:02.921Z,103281.85
2019-05-14T12:58:44.893Z,103277.72
2019-05-14T13:01:12.808Z,103271.02
2019-05-14T13:03:45.490Z,103278.31
2019-05-14T13:06:19.226Z,103283.34
2019-05-14T13:08:52.165Z,103277.16
2019-05-14T13:11:25.070Z,103276.39
2019-05-14T13:13:58.727Z,103269.31
2019-05-14T13:16:31.820Z,103267.52
2019-05-14T13:19:04.731Z,103258.59
2019-05-14T13:21:39.000Z,103267.22
2019-05-14T13:24:12.130Z,103263.23
2019-05-14T13:26:49.489Z,103249.17
2019-05-14T13:29:21.622Z,103238.39
2019-05-14T13:31:54.565Z,103243.64
2019-05-14T13:34:28.928Z,103239.02
2019-05-14T13:37:01.923Z,103242.63
2019-05-14T13:39:35.662Z,103249.24
2019-05-14T13:42:11.720Z,103241.56
2019-05-14T13:44:45.239Z,103230.66
2019-05-14T13:47:18.356Z,103231.62
2019-05-14T13:49:51.388Z,103227.48
2019-05-14T13:52:24.201Z,103219.92
2019-05-14T13:54:57.021Z,103221.38
2019-05-14T13:57:29.885Z,103221.33
2019-05-14T14:00:03.709Z,103209.98
2019-05-14T14:02:40.174Z,103200.27
2019-05-14T14:05:13.027Z,103191.33
2019-05-14T14:07:48.374Z,103186.02
2019-05-14T14:10:20.060Z,103177.69
2019-05-14T14:12:52.315Z,103173.75
2019-05-14T14:15:24.696Z,103161.17
2019-05-14T14:17:56.959Z,103159.11
2019-05-14T14:20:29.428Z,103164.51
2019-05-14T14:23:18.797Z,103180.16
2019-05-14T14:25:39.524Z,103170.61
2019-05-14T14:28:11.999Z,103168.43
2019-05-14T14:30:44.055Z,103172.27
2019-05-14T14:33:18.513Z,103167.35
2019-05-14T14:35:50.393Z,103164.75
2019-05-14T14:38:22.710Z,103166.66
2019-05-14T14:40:54.782Z,103171.70
2019-05-14T14:43:29.448Z,103170.59
2019-05-14T14:46:05.936Z,103157.50
2019-05-14T14:48:35.763Z,103157.07
2019-05-14T14:51:08.458Z,103145.23
2019-05-14T14:53:52.526Z,103145.94
2019-05-14T14:56:14.826Z,103145.91
2019-05-14T14:58:49.415Z,103136.18
2019-05-14T15:01:21.179Z,103140.19
2019-05-14T15:03:53.638Z,103127.93
2019-05-14T15:06:25.876Z,103120.33
2019-05-14T15:08:58.805Z,103115.48
2019-05-14T15:11:31.263Z,103116.14
2019-05-14T15:14:03.791Z,103112.86
2019-05-14T15:16:38.795Z,103098.72
2019-05-14T15:19:09.966Z,103103.16
2019-05-14T15:21:42.267Z,103100.77
2019-05-14T15:24:16.016Z,103101.45
2019-05-14T15:26:48.347Z,103085.50
2019-05-14T15:29:20.639Z,103088.49
2019-05-14T15:31:52.878Z,103084.66
2019-05-14T15:34:25.319Z,103085.33
2019-05-14T15:36:59.890Z,103086.73
2019-05-14T15:39:31.837Z,103084.94
2019-05-14T15:42:05.940Z,103087.25
2019-05-14T15:44:48.885Z,103083.50
2019-05-14T15:47:12.244Z,103076.24
2019-05-14T15:49:45.250Z,103077.08
2019-05-14T15:52:19.198Z,103069.55
2019-05-14T15:54:51.994Z,103075.02
2019-05-14T15:57:24.370Z,103063.06
2019-05-14T16:00:00.787Z,103064.56
2019-05-14T16:02:30.740Z,103064.80
2019-05-14T16:05:04.371Z,103060.60
2019-05-14T16:07:39.055Z,103059.55
2019-05-14T16:10:10.813Z,103055.80
2019-05-14T16:12:43.132Z,103062.94
2019-05-14T16:15:15.398Z,103054.17
2019-05-14T16:18:04.433Z,103044.72
2019-05-14T16:20:21.791Z,103055.06
2019-05-14T16:22:54.900Z,103053.69
2019-05-14T16:25:28.647Z,103039.52
2019-05-14T16:28:01.063Z,103042.38
2019-05-14T16:30:33.503Z,103040.75
2019-05-14T16:33:05.759Z,103040.88
2019-05-14T16:35:39.297Z,103036.49
2019-05-14T16:38:11.718Z,103041.14
2019-05-14T16:40:44.021Z,103038.15
2019-05-14T16:43:16.283Z,103035.55
2019-05-14T16:45:49.235Z,103039.03
2019-05-14T16:48:21.755Z,103029.64
2019-05-14T16:50:54.021Z,103042.88
2019-05-14T16:53:26.243Z,103035.59
2019-05-14T16:55:58.557Z,103030.98
2019-05-14T16:58:30.751Z,103028.86
2019-05-14T17:01:03.045Z,103035.09
2019-05-14T17:03:39.691Z,103034.23
2019-05-14T17:06:12.652Z,103030.05
2019-05-14T17:08:45.464Z,103029.76
2019-05-14T17:11:18.744Z,103027.14
2019-05-14T17:13:51.553Z,103019.56
2019-05-14T17:16:24.444Z,103025.58
2019-05-14T17:18:59.099Z,103017.84
2019-05-14T17:21:31.586Z,103019.48
2019-05-14T17:24:04.640Z,103012.73
2019-05-14T17:26:38.095Z,103012.84
2019-05-14T17:29:11.421Z,103011.03
2019-05-14T17:31:43.861Z,103009.90
2019-05-14T17:34:18.434Z,103009.25
2019-05-14T17:36:51.054Z,103008.72
2019-05-14T17:39:24.393Z,103010.99
2019-05-14T17:41:58.952Z,103010.94
2019-05-14T17:44:32.936Z,103005.45
2019-05-14T17:47:05.209Z,102995.43
2019-05-14T17:49:39.182Z,102996.44
2019-05-14T17:52:11.616Z,102998.63
2019-05-14T17:54:43.856Z,102991.50
2019-05-14T17:57:16.133Z,102994.31
2019-05-14T17:59:49.616Z,103000.80
2019-05-14T18:02:22.133Z,102996.30
2019-05-14T18:04:56.351Z,102979.09
2019-05-14T18:07:28.689Z,102980.38
2019-05-14T18:10:01.035Z,102976.42
2019-05-14T18:12:33.516Z,102979.21
2019-05-14T18:15:05.759Z,102979.97
2019-05-14T18:17:39.233Z,102981.73
2019-05-14T18:20:12.002Z,102978.28
2019-05-14T18:22:44.227Z,102983.53
2019-05-14T18:25:18.358Z,102979.03
2019-05-14T18:27:50.755Z,102976.70
2019-05-14T18:30:22.978Z,102970.34
2019-05-14T18:32:55.312Z,102976.49
2019-05-14T18:35:29.469Z,102973.39
2019-05-14T18:38:01.570Z,102967.03
2019-05-14T18:40:33.867Z,102961.04
2019-05-14T18:43:08.583Z,102969.39
2019-05-14T18:45:40.181Z,102966.66
2019-05-14T18:48:12.298Z,102963.21
2019-05-14T18:50:44.561Z,102963.73
2019-05-14T18:53:18.914Z,102963.62
2019-05-14T18:55:50.798Z,102962.39
2019-05-14T18:58:23.071Z,102963.73
2019-05-14T19:00:59.291Z,102959.86
2019-05-14T19:03:39.252Z,102966.30
2019-05-14T19:06:10.480Z,102961.53
2019-05-14T19:08:42.738Z,102965.41
2019-05-14T19:11:14.983Z,102964.24
2019-05-14T19:13:48.351Z,102971.86
2019-05-14T19:16:20.924Z,102965.48
2019-05-14T19:18:53.318Z,102969.07
2019-05-14T19:21:25.579Z,102968.34
2019-05-14T19:23:58.078Z,102973.15
2019-05-14T19:26:34.352Z,102970.13
2019-05-14T19:29:04.239Z,102973.80
2019-05-14T19:31:38.485Z,102970.80
2019-05-14T19:34:10.263Z,102977.91
2019-05-14T19:36:42.449Z,102977.27
2019-05-14T19:39:14.752Z,102980.42
2019-05-14T19:41:48.413Z,102977.11
2019-05-14T19:44:20.879Z,102982.94
2019-05-14T19:46:53.224Z,102983.55
2019-05-14T19:49:25.530Z,102987.75
2019-05-14T19:51:58.821Z,102985.89
2019-05-14T19:54:31.339Z,102990.98
2019-05-14T19:57:03.570Z,102983.64
2019-05-14T19:59:38.187Z,102985.13
2019-05-14T20:02:10.020Z,102983.02
2019-05-14T20:04:42.395Z,102986.25
2019-05-14T20:07:14.791Z,102985.11
2019-05-14T20:09:48.290Z,102989.70
2019-05-14T20:12:20.765Z,102993.57
2019-05-14T20:14:52.985Z,102996.36
2019-05-14T20:17:25.285Z,102990.97
2019-05-14T20:19:57.939Z,102985.48
2019-05-14T20:22:30.467Z,102990.82
2019-05-14T20:25:02.730Z,102997.06
2019-05-14T20:27:38.657Z,102997.69
2019-05-14T20:30:10.460Z,102988.21
2019-05-14T20:32:44.404Z,102994.11
2019-05-14T20:35:30.675Z,102987.25
2019-05-14T20:37:51.226Z,102988.21
2019-05-14T20:40:23.496Z,102991.92
2019-05-14T20:42:55.733Z,102990.52
2019-05-14T20:45:28.860Z,102992.07
2019-05-14T20:48:01.725Z,102991.51
2019-05-14T20:50:33.936Z,102988.13
2019-05-14T20:53:08.399Z,102995.27
2019-05-14T20:55:40.290Z,102991.83
2019-05-14T20:58:12.350Z,102994.12
2019-05-14T21:00:44.625Z,102994.37
2019-05-14T21:03:18.730Z,102995.08
2019-05-14T21:05:50.855Z,102992.70
2019-05-14T21:08:23.150Z,102990.32
2019-05-14T21:10:55.441Z,102988.19
2019-05-14T21:13:27.896Z,102991.48
2019-05-14T21:16:00.121Z,102989.91
2019-05-14T21:18:35.162Z,102991.86
2019-05-14T21:21:10.873Z,102986.30
2019-05-14T21:23:40.578Z,102988.08
2019-05-14T21:26:12.843Z,102978.16
2019-05-14T21:28:48.723Z,102979.96
2019-05-14T21:31:21.245Z,102983.95
2019-05-14T21:33:53.628Z,102988.24
2019-05-14T21:36:28.244Z,102977.55
2019-05-14T21:38:59.915Z,102978.25
2019-05-14T21:41:32.165Z,102975.80
2019-05-14T21:44:04.443Z,102981.52
2019-05-14T21:46:39.478Z,102984.36
2019-05-14T21:49:11.358Z,102975.85
2019-05-14T21:51:43.838Z,102974.70
2019-05-14T21:54:16.177Z,102972.31
2019-05-14T21:56:49.563Z,102975.16
2019-05-14T22:01:54.119Z,102968.75
2019-05-14T22:04:28.859Z,102973.00
2019-05-14T22:07:00.332Z,102970.22
2019-05-14T22:09:32.642Z,102972.15
2019-05-14T22:12:04.890Z,102966.34
2019-05-14T22:14:37.972Z,102964.77
2019-05-14T22:17:10.407Z,102967.59
2019-05-14T22:19:42.753Z,102960.97
2019-05-14T22:22:15.010Z,102956.58
2019-05-14T22:24:48.932Z,102962.42
2019-05-14T22:27:21.351Z,102959.64
2019-05-14T22:29:53.623Z,102958.45
2019-05-14T22:32:25.877Z,102962.30
2019-05-14T22:34:58.629Z,102951.97
2019-05-14T22:37:31.020Z,102955.13
2019-05-14T22:40:03.259Z,102954.27
2019-05-14T22:42:35.616Z,102954.70
2019-05-14T22:45:09.358Z,102953.84
2019-05-14T22:47:42.067Z,102952.75
2019-05-14T22:50:14.323Z,102951.66
2019-05-14T22:52:48.559Z,102956.27
2019-05-14T22:55:20.548Z,102954.38
2019-05-14T22:57:52.972Z,102949.27
2019-05-14T23:00:25.302Z,102949.30
2019-05-14T23:02:57.538Z,102942.91
2019-05-14T23:05:29.820Z,102950.05
2019-05-14T23:08:02.079Z,102948.63
2019-05-14T23:10:34.731Z,102942.44
2019-05-14T23:13:09.303Z,102948.84
2019-05-14T23:15:41.159Z,102943.84
2019-05-14T23:18:13.408Z,102953.11
2019-05-14T23:20:45.661Z,102944.78
2019-05-14T23:23:18.540Z,102948.61
2019-05-14T23:25:50.903Z,102951.91
2019-05-14T23:28:23.444Z,102945.02
2019-05-14T23:30:55.679Z,102943.56
2019-05-14T23:33:28.873Z,102943.09
2019-05-14T23:36:01.298Z,102937.97
2019-05-14T23:38:33.540Z,102941.90
2019-05-14T23:41:08.435Z,102935.00
2019-05-14T23:43:39.823Z,102938.29
2019-05-14T23:46:12.448Z,102937.89
2019-05-14T23:48:44.972Z,102934.49
2019-05-14T23:51:18.200Z,102929.59
2019-05-14T23:53:51.198Z,102930.09
2019-05-14T23:56:23.452Z,102932.11
2019-05-14T23:59:01.357Z,102927.61
